sensor_id;sensor_type;location;lat;lon;timestamp;P1;durP1;ratioP1;P2;durP2;ratioP2
73487;SDS011;61721;42.206;25.320;2024-03-23T00:54:56;5.72;;;2.42;;
73487;SDS011;61721;42.206;25.320;2024-03-23T00:57:23;5.53;;;2.60;;
73487;SDS011;61721;42.206;25.320;2024-03-23T00:59:50;5.22;;;2.75;;
73487;SDS011;61721;42.206;25.320;2024-03-23T01:02:16;6.30;;;3.03;;
73487;SDS011;61721;42.206;25.320;2024-03-23T01:04:44;6.45;;;3.00;;
73487;SDS011;61721;42.206;25.320;2024-03-23T01:07:10;4.88;;;2.60;;
73487;SDS011;61721;42.206;25.320;2024-03-23T01:09:37;5.15;;;2.75;;
73487;SDS011;61721;42.206;25.320;2024-03-23T01:12:06;4.85;;;2.53;;
73487;SDS011;61721;42.206;25.320;2024-03-23T01:14:33;4.68;;;2.47;;
73487;SDS011;61721;42.206;25.320;2024-03-23T01:17:01;5.32;;;2.95;;
73487;SDS011;61721;42.206;25.320;2024-03-23T01:19:29;5.78;;;3.00;;
73487;SDS011;61721;42.206;25.320;2024-03-23T01:21:56;6.13;;;2.53;;
73487;SDS011;61721;42.206;25.320;2024-03-23T01:24:23;4.70;;;2.35;;
73487;SDS011;61721;42.206;25.320;2024-03-23T01:26:49;5.05;;;2.35;;
73487;SDS011;61721;42.206;25.320;2024-03-23T01:29:18;5.13;;;2.65;;
73487;SDS011;61721;42.206;25.320;2024-03-23T01:31:45;4.88;;;2.67;;
73487;SDS011;61721;42.206;25.320;2024-03-23T01:34:12;5.47;;;2.80;;
73487;SDS011;61721;42.206;25.320;2024-03-23T01:36:38;6.68;;;3.50;;
73487;SDS011;61721;42.206;25.320;2024-03-23T01:39:05;6.25;;;3.00;;
73487;SDS011;61721;42.206;25.320;2024-03-23T01:41:34;6.10;;;2.85;;
73487;SDS011;61721;42.206;25.320;2024-03-23T01:44:04;5.57;;;2.67;;
73487;SDS011;61721;42.206;25.320;2024-03-23T01:46:33;6.05;;;2.85;;
73487;SDS011;61721;42.206;25.320;2024-03-23T01:49:01;5.88;;;3.30;;
73487;SDS011;61721;42.206;25.320;2024-03-23T01:51:27;5.72;;;2.95;;
73487;SDS011;61721;42.206;25.320;2024-03-23T01:53:56;10.75;;;4.93;;
73487;SDS011;61721;42.206;25.320;2024-03-23T01:56:23;7.88;;;3.33;;
73487;SDS011;61721;42.206;25.320;2024-03-23T01:58:50;8.27;;;3.08;;
73487;SDS011;61721;42.206;25.320;2024-03-23T02:01:16;5.22;;;2.63;;
73487;SDS011;61721;42.206;25.320;2024-03-23T02:03:46;5.55;;;2.53;;
73487;SDS011;61721;42.206;25.320;2024-03-23T02:06:12;4.25;;;2.28;;
73487;SDS011;61721;42.206;25.320;2024-03-23T02:08:39;6.60;;;2.80;;
73487;SDS011;61721;42.206;25.320;2024-03-23T02:11:06;6.57;;;3.53;;
73487;SDS011;61721;42.206;25.320;2024-03-23T02:13:33;5.85;;;3.33;;
73487;SDS011;61721;42.206;25.320;2024-03-23T02:16:00;6.55;;;3.15;;
73487;SDS011;61721;42.206;25.320;2024-03-23T02:18:27;6.43;;;2.88;;
73487;SDS011;61721;42.206;25.320;2024-03-23T02:20:55;5.57;;;2.78;;
73487;SDS011;61721;42.206;25.320;2024-03-23T02:23:24;5.88;;;2.95;;
73487;SDS011;61721;42.206;25.320;2024-03-23T02:25:51;6.90;;;3.25;;
73487;SDS011;61721;42.206;25.320;2024-03-23T02:28:18;4.65;;;2.38;;
73487;SDS011;61721;42.206;25.320;2024-03-23T02:30:45;6.15;;;3.38;;
73487;SDS011;61721;42.206;25.320;2024-03-23T02:33:12;6.57;;;3.33;;
73487;SDS011;61721;42.206;25.320;2024-03-23T02:35:45;6.72;;;3.22;;
73487;SDS011;61721;42.206;25.320;2024-03-23T02:38:12;5.13;;;2.60;;
73487;SDS011;61721;42.206;25.320;2024-03-23T02:40:41;5.30;;;2.55;;
73487;SDS011;61721;42.206;25.320;2024-03-23T02:43:08;5.18;;;2.88;;
73487;SDS011;61721;42.206;25.320;2024-03-23T02:45:34;5.22;;;2.42;;
73487;SDS011;61721;42.206;25.320;2024-03-23T02:48:02;5.25;;;2.78;;
73487;SDS011;61721;42.206;25.320;2024-03-23T02:50:29;4.82;;;2.45;;
73487;SDS011;61721;42.206;25.320;2024-03-23T02:52:56;4.68;;;2.72;;
73487;SDS011;61721;42.206;25.320;2024-03-23T02:55:23;5.00;;;2.47;;
73487;SDS011;61721;42.206;25.320;2024-03-23T02:57:52;4.82;;;2.95;;
73487;SDS011;61721;42.206;25.320;2024-03-23T03:00:18;4.05;;;2.53;;
73487;SDS011;61721;42.206;25.320;2024-03-23T03:02:46;4.55;;;2.78;;
73487;SDS011;61721;42.206;25.320;2024-03-23T03:05:12;4.07;;;2.67;;
73487;SDS011;61721;42.206;25.320;2024-03-23T03:07:39;6.25;;;2.53;;
73487;SDS011;61721;42.206;25.320;2024-03-23T03:10:06;5.35;;;2.53;;
73487;SDS011;61721;42.206;25.320;2024-03-23T03:12:36;4.30;;;2.33;;
73487;SDS011;61721;42.206;25.320;2024-03-23T03:15:04;6.22;;;2.90;;
73487;SDS011;61721;42.206;25.320;2024-03-23T03:17:33;5.07;;;2.13;;
73487;SDS011;61721;42.206;25.320;2024-03-23T03:19:59;5.13;;;2.42;;
73487;SDS011;61721;42.206;25.320;2024-03-23T03:22:28;5.10;;;2.50;;
73487;SDS011;61721;42.206;25.320;2024-03-23T03:24:54;5.25;;;2.70;;
73487;SDS011;61721;42.206;25.320;2024-03-23T03:27:21;5.47;;;2.90;;
73487;SDS011;61721;42.206;25.320;2024-03-23T03:29:48;5.53;;;2.60;;
73487;SDS011;61721;42.206;25.320;2024-03-23T03:32:17;6.55;;;2.67;;
73487;SDS011;61721;42.206;25.320;2024-03-23T03:34:43;5.03;;;2.92;;
73487;SDS011;61721;42.206;25.320;2024-03-23T03:37:11;7.55;;;3.70;;
73487;SDS011;61721;42.206;25.320;2024-03-23T03:39:37;12.63;;;6.45;;
73487;SDS011;61721;42.206;25.320;2024-03-23T03:42:04;14.30;;;8.30;;
73487;SDS011;61721;42.206;25.320;2024-03-23T03:44:32;16.33;;;8.95;;
73487;SDS011;61721;42.206;25.320;2024-03-23T03:47:02;13.95;;;8.15;;
73487;SDS011;61721;42.206;25.320;2024-03-23T03:49:30;15.95;;;8.40;;
73487;SDS011;61721;42.206;25.320;2024-03-23T03:51:57;14.13;;;8.73;;
73487;SDS011;61721;42.206;25.320;2024-03-23T03:54:23;20.65;;;11.68;;
73487;SDS011;61721;42.206;25.320;2024-03-23T03:56:51;23.17;;;12.43;;
73487;SDS011;61721;42.206;25.320;2024-03-23T03:59:17;17.52;;;8.77;;
73487;SDS011;61721;42.206;25.320;2024-03-23T04:01:45;15.43;;;8.52;;
73487;SDS011;61721;42.206;25.320;2024-03-23T04:04:12;17.95;;;7.78;;
73487;SDS011;61721;42.206;25.320;2024-03-23T04:06:43;14.75;;;8.75;;
73487;SDS011;61721;42.206;25.320;2024-03-23T04:09:10;23.48;;;9.50;;
73487;SDS011;61721;42.206;25.320;2024-03-23T04:11:37;18.65;;;9.05;;
73487;SDS011;61721;42.206;25.320;2024-03-23T04:14:03;17.52;;;8.07;;
73487;SDS011;61721;42.206;25.320;2024-03-23T04:16:33;19.75;;;8.38;;
73487;SDS011;61721;42.206;25.320;2024-03-23T04:19:00;22.27;;;7.65;;
73487;SDS011;61721;42.206;25.320;2024-03-23T04:21:28;18.83;;;7.78;;
73487;SDS011;61721;42.206;25.320;2024-03-23T04:23:56;16.13;;;7.07;;
73487;SDS011;61721;42.206;25.320;2024-03-23T04:26:23;16.27;;;6.10;;
73487;SDS011;61721;42.206;25.320;2024-03-23T04:28:50;10.35;;;4.32;;
73487;SDS011;61721;42.206;25.320;2024-03-23T04:31:16;13.23;;;4.75;;
73487;SDS011;61721;42.206;25.320;2024-03-23T04:33:44;11.20;;;4.35;;
73487;SDS011;61721;42.206;25.320;2024-03-23T04:36:10;8.05;;;4.07;;
73487;SDS011;61721;42.206;25.320;2024-03-23T04:38:37;8.95;;;4.28;;
73487;SDS011;61721;42.206;25.320;2024-03-23T04:41:06;12.75;;;3.45;;
73487;SDS011;61721;42.206;25.320;2024-03-23T04:43:33;6.43;;;2.85;;
73487;SDS011;61721;42.206;25.320;2024-03-23T04:46:01;8.60;;;2.35;;
73487;SDS011;61721;42.206;25.320;2024-03-23T04:48:28;4.55;;;2.22;;
73487;SDS011;61721;42.206;25.320;2024-03-23T04:50:55;9.40;;;2.38;;
73487;SDS011;61721;42.206;25.320;2024-03-23T04:53:24;9.20;;;2.50;;
73487;SDS011;61721;42.206;25.320;2024-03-23T04:55:53;7.22;;;3.00;;
73487;SDS011;61721;42.206;25.320;2024-03-23T04:58:21;6.32;;;3.55;;
73487;SDS011;61721;42.206;25.320;2024-03-23T05:00:53;9.82;;;3.20;;
73487;SDS011;61721;42.206;25.320;2024-03-23T05:03:20;15.07;;;3.15;;
73487;SDS011;61721;42.206;25.320;2024-03-23T05:05:47;8.93;;;3.35;;
73487;SDS011;61721;42.206;25.320;2024-03-23T05:08:14;5.72;;;2.60;;
73487;SDS011;61721;42.206;25.320;2024-03-23T05:10:42;4.15;;;2.33;;
73487;SDS011;61721;42.206;25.320;2024-03-23T05:13:09;4.85;;;2.40;;
73487;SDS011;61721;42.206;25.320;2024-03-23T05:15:38;6.85;;;2.47;;
73487;SDS011;61721;42.206;25.320;2024-03-23T05:18:04;7.35;;;2.75;;
73487;SDS011;61721;42.206;25.320;2024-03-23T05:20:40;4.18;;;2.20;;
73487;SDS011;61721;42.206;25.320;2024-03-23T05:23:06;5.47;;;2.50;;
73487;SDS011;61721;42.206;25.320;2024-03-23T05:25:33;4.38;;;1.90;;
73487;SDS011;61721;42.206;25.320;2024-03-23T05:28:00;7.93;;;2.13;;
73487;SDS011;61721;42.206;25.320;2024-03-23T05:30:34;4.68;;;2.17;;
73487;SDS011;61721;42.206;25.320;2024-03-23T05:33:02;5.07;;;2.28;;
73487;SDS011;61721;42.206;25.320;2024-03-23T05:35:30;5.25;;;3.30;;
73487;SDS011;61721;42.206;25.320;2024-03-23T05:37:56;6.78;;;3.60;;
73487;SDS011;61721;42.206;25.320;2024-03-23T05:40:24;6.88;;;3.30;;
73487;SDS011;61721;42.206;25.320;2024-03-23T05:42:51;7.93;;;3.13;;
73487;SDS011;61721;42.206;25.320;2024-03-23T05:45:21;7.05;;;2.80;;
73487;SDS011;61721;42.206;25.320;2024-03-23T05:47:47;7.32;;;3.45;;
73487;SDS011;61721;42.206;25.320;2024-03-23T05:50:17;6.47;;;3.47;;
73487;SDS011;61721;42.206;25.320;2024-03-23T05:52:44;12.45;;;3.65;;
73487;SDS011;61721;42.206;25.320;2024-03-23T05:55:11;10.07;;;3.58;;
73487;SDS011;61721;42.206;25.320;2024-03-23T05:57:37;5.88;;;2.83;;
73487;SDS011;61721;42.206;25.320;2024-03-23T06:00:05;5.65;;;2.83;;
73487;SDS011;61721;42.206;25.320;2024-03-23T06:02:36;6.15;;;2.85;;
73487;SDS011;61721;42.206;25.320;2024-03-23T06:05:04;8.38;;;3.13;;
73487;SDS011;61721;42.206;25.320;2024-03-23T06:07:31;8.40;;;2.40;;
73487;SDS011;61721;42.206;25.320;2024-03-23T06:09:59;5.28;;;2.90;;
73487;SDS011;61721;42.206;25.320;2024-03-23T06:12:25;8.43;;;2.80;;
73487;SDS011;61721;42.206;25.320;2024-03-23T06:14:52;11.00;;;3.10;;
73487;SDS011;61721;42.206;25.320;2024-03-23T06:17:19;6.80;;;4.00;;
73487;SDS011;61721;42.206;25.320;2024-03-23T06:19:46;5.97;;;3.10;;
73487;SDS011;61721;42.206;25.320;2024-03-23T06:22:13;6.15;;;3.00;;
73487;SDS011;61721;42.206;25.320;2024-03-23T06:24:41;6.15;;;3.17;;
73487;SDS011;61721;42.206;25.320;2024-03-23T06:27:07;7.13;;;3.40;;
73487;SDS011;61721;42.206;25.320;2024-03-23T06:29:35;5.70;;;2.95;;
73487;SDS011;61721;42.206;25.320;2024-03-23T06:32:01;6.85;;;3.15;;
73487;SDS011;61721;42.206;25.320;2024-03-23T06:34:29;6.13;;;3.33;;
73487;SDS011;61721;42.206;25.320;2024-03-23T06:36:56;5.80;;;2.78;;
73487;SDS011;61721;42.206;25.320;2024-03-23T06:39:23;7.80;;;3.40;;
73487;SDS011;61721;42.206;25.320;2024-03-23T06:41:54;6.57;;;3.42;;
73487;SDS011;61721;42.206;25.320;2024-03-23T06:44:22;7.40;;;3.42;;
73487;SDS011;61721;42.206;25.320;2024-03-23T06:46:48;6.72;;;3.75;;
73487;SDS011;61721;42.206;25.320;2024-03-23T06:49:16;5.85;;;2.97;;
73487;SDS011;61721;42.206;25.320;2024-03-23T06:51:42;5.78;;;3.70;;
73487;SDS011;61721;42.206;25.320;2024-03-23T06:54:11;6.18;;;3.08;;
73487;SDS011;61721;42.206;25.320;2024-03-23T06:56:38;7.85;;;2.78;;
73487;SDS011;61721;42.206;25.320;2024-03-23T06:59:07;5.63;;;2.85;;
73487;SDS011;61721;42.206;25.320;2024-03-23T07:01:33;5.57;;;3.13;;
73487;SDS011;61721;42.206;25.320;2024-03-23T07:04:01;5.70;;;3.20;;
73487;SDS011;61721;42.206;25.320;2024-03-23T07:06:27;5.82;;;2.90;;
73487;SDS011;61721;42.206;25.320;2024-03-23T07:08:55;7.85;;;4.70;;
73487;SDS011;61721;42.206;25.320;2024-03-23T07:11:21;9.18;;;4.03;;
73487;SDS011;61721;42.206;25.320;2024-03-23T07:13:49;7.20;;;3.22;;
73487;SDS011;61721;42.206;25.320;2024-03-23T07:16:17;5.82;;;3.25;;
73487;SDS011;61721;42.206;25.320;2024-03-23T07:18:45;12.07;;;3.75;;
73487;SDS011;61721;42.206;25.320;2024-03-23T07:21:11;7.22;;;4.00;;
73487;SDS011;61721;42.206;25.320;2024-03-23T07:23:41;6.60;;;3.53;;
73487;SDS011;61721;42.206;25.320;2024-03-23T07:26:10;5.90;;;3.58;;
73487;SDS011;61721;42.206;25.320;2024-03-23T07:28:37;5.78;;;3.40;;
73487;SDS011;61721;42.206;25.320;2024-03-23T07:31:09;6.95;;;3.47;;
73487;SDS011;61721;42.206;25.320;2024-03-23T07:33:41;8.63;;;3.97;;
73487;SDS011;61721;42.206;25.320;2024-03-23T07:36:08;7.15;;;3.92;;
73487;SDS011;61721;42.206;25.320;2024-03-23T07:38:35;5.50;;;3.42;;
73487;SDS011;61721;42.206;25.320;2024-03-23T07:41:05;8.35;;;4.18;;
73487;SDS011;61721;42.206;25.320;2024-03-23T07:43:32;10.13;;;4.25;;
73487;SDS011;61721;42.206;25.320;2024-03-23T07:45:59;6.82;;;3.60;;
73487;SDS011;61721;42.206;25.320;2024-03-23T07:48:27;6.50;;;3.28;;
73487;SDS011;61721;42.206;25.320;2024-03-23T07:51:02;7.75;;;4.32;;
73487;SDS011;61721;42.206;25.320;2024-03-23T07:55:57;6.85;;;3.90;;
73487;SDS011;61721;42.206;25.320;2024-03-23T07:58:25;6.18;;;3.58;;
73487;SDS011;61721;42.206;25.320;2024-03-23T08:00:52;6.78;;;3.35;;
73487;SDS011;61721;42.206;25.320;2024-03-23T08:03:20;7.22;;;3.90;;
73487;SDS011;61721;42.206;25.320;2024-03-23T08:05:46;9.68;;;3.78;;
73487;SDS011;61721;42.206;25.320;2024-03-23T08:08:15;6.97;;;3.40;;
73487;SDS011;61721;42.206;25.320;2024-03-23T08:10:48;6.15;;;3.58;;
73487;SDS011;61721;42.206;25.320;2024-03-23T08:13:16;6.57;;;3.60;;
73487;SDS011;61721;42.206;25.320;2024-03-23T08:15:42;5.88;;;3.50;;
73487;SDS011;61721;42.206;25.320;2024-03-23T08:18:10;8.10;;;3.47;;
73487;SDS011;61721;42.206;25.320;2024-03-23T08:20:37;6.85;;;4.22;;
73487;SDS011;61721;42.206;25.320;2024-03-23T08:23:05;8.20;;;4.28;;
73487;SDS011;61721;42.206;25.320;2024-03-23T08:25:33;7.03;;;3.53;;
73487;SDS011;61721;42.206;25.320;2024-03-23T08:28:01;11.55;;;4.00;;
73487;SDS011;61721;42.206;25.320;2024-03-23T08:30:27;7.78;;;3.60;;
73487;SDS011;61721;42.206;25.320;2024-03-23T08:32:55;5.90;;;3.65;;
73487;SDS011;61721;42.206;25.320;2024-03-23T08:35:22;6.63;;;3.90;;
73487;SDS011;61721;42.206;25.320;2024-03-23T08:37:49;7.07;;;4.10;;
73487;SDS011;61721;42.206;25.320;2024-03-23T08:40:15;8.65;;;4.00;;
73487;SDS011;61721;42.206;25.320;2024-03-23T08:42:44;6.40;;;3.83;;
73487;SDS011;61721;42.206;25.320;2024-03-23T08:45:10;7.40;;;4.28;;
73487;SDS011;61721;42.206;25.320;2024-03-23T08:47:37;9.15;;;4.20;;
73487;SDS011;61721;42.206;25.320;2024-03-23T08:50:04;12.80;;;4.20;;
73487;SDS011;61721;42.206;25.320;2024-03-23T08:52:32;7.38;;;4.05;;
73487;SDS011;61721;42.206;25.320;2024-03-23T08:54:59;9.73;;;4.40;;
73487;SDS011;61721;42.206;25.320;2024-03-23T08:57:26;6.63;;;3.75;;
73487;SDS011;61721;42.206;25.320;2024-03-23T08:59:54;9.00;;;5.35;;
73487;SDS011;61721;42.206;25.320;2024-03-23T09:02:21;9.75;;;4.05;;
73487;SDS011;61721;42.206;25.320;2024-03-23T09:04:48;6.85;;;4.03;;
73487;SDS011;61721;42.206;25.320;2024-03-23T09:07:15;11.25;;;4.70;;
73487;SDS011;61721;42.206;25.320;2024-03-23T09:09:42;9.95;;;4.57;;
73487;SDS011;61721;42.206;25.320;2024-03-23T09:12:09;9.45;;;5.15;;
73487;SDS011;61721;42.206;25.320;2024-03-23T09:14:35;9.77;;;4.22;;
73487;SDS011;61721;42.206;25.320;2024-03-23T09:17:04;6.20;;;3.78;;
73487;SDS011;61721;42.206;25.320;2024-03-23T09:19:31;10.00;;;3.88;;
73487;SDS011;61721;42.206;25.320;2024-03-23T09:21:58;7.97;;;4.97;;
73487;SDS011;61721;42.206;25.320;2024-03-23T09:24:24;6.80;;;4.22;;
73487;SDS011;61721;42.206;25.320;2024-03-23T09:26:51;9.07;;;4.78;;
73487;SDS011;61721;42.206;25.320;2024-03-23T09:29:18;7.32;;;4.18;;
73487;SDS011;61721;42.206;25.320;2024-03-23T09:31:45;7.07;;;4.13;;
73487;SDS011;61721;42.206;25.320;2024-03-23T09:34:13;8.20;;;4.20;;
73487;SDS011;61721;42.206;25.320;2024-03-23T09:36:40;19.25;;;4.68;;
73487;SDS011;61721;42.206;25.320;2024-03-23T09:39:07;9.35;;;4.50;;
73487;SDS011;61721;42.206;25.320;2024-03-23T09:41:35;6.70;;;3.97;;
73487;SDS011;61721;42.206;25.320;2024-03-23T09:44:01;7.80;;;4.18;;
73487;SDS011;61721;42.206;25.320;2024-03-23T09:46:29;8.38;;;4.20;;
73487;SDS011;61721;42.206;25.320;2024-03-23T09:48:59;8.18;;;4.43;;
73487;SDS011;61721;42.206;25.320;2024-03-23T09:51:31;13.23;;;5.65;;
73487;SDS011;61721;42.206;25.320;2024-03-23T09:53:57;11.02;;;4.00;;
73487;SDS011;61721;42.206;25.320;2024-03-23T09:56:24;10.25;;;3.67;;
73487;SDS011;61721;42.206;25.320;2024-03-23T09:58:50;7.20;;;3.58;;
73487;SDS011;61721;42.206;25.320;2024-03-23T10:01:18;9.57;;;3.67;;
73487;SDS011;61721;42.206;25.320;2024-03-23T10:03:44;6.15;;;3.33;;
73487;SDS011;61721;42.206;25.320;2024-03-23T10:06:12;6.60;;;3.50;;
73487;SDS011;61721;42.206;25.320;2024-03-23T10:08:40;8.05;;;3.50;;
73487;SDS011;61721;42.206;25.320;2024-03-23T10:11:12;8.00;;;3.55;;
73487;SDS011;61721;42.206;25.320;2024-03-23T10:13:41;8.32;;;3.88;;
73487;SDS011;61721;42.206;25.320;2024-03-23T10:16:09;9.10;;;3.95;;
73487;SDS011;61721;42.206;25.320;2024-03-23T10:18:39;6.68;;;3.80;;
73487;SDS011;61721;42.206;25.320;2024-03-23T10:21:07;8.43;;;3.97;;
73487;SDS011;61721;42.206;25.320;2024-03-23T10:23:34;6.55;;;3.67;;
73487;SDS011;61721;42.206;25.320;2024-03-23T10:28:51;6.38;;;3.08;;
73487;SDS011;61721;42.206;25.320;2024-03-23T10:31:19;6.47;;;3.00;;
73487;SDS011;61721;42.206;25.320;2024-03-23T10:33:46;5.60;;;3.13;;
73487;SDS011;61721;42.206;25.320;2024-03-23T10:36:14;4.40;;;2.45;;
73487;SDS011;61721;42.206;25.320;2024-03-23T10:38:40;6.35;;;2.97;;
73487;SDS011;61721;42.206;25.320;2024-03-23T10:41:09;5.28;;;2.90;;
73487;SDS011;61721;42.206;25.320;2024-03-23T10:43:37;5.28;;;2.90;;
73487;SDS011;61721;42.206;25.320;2024-03-23T10:46:05;5.70;;;2.35;;
73487;SDS011;61721;42.206;25.320;2024-03-23T10:48:33;3.90;;;2.05;;
73487;SDS011;61721;42.206;25.320;2024-03-23T10:50:59;4.90;;;2.05;;
73487;SDS011;61721;42.206;25.320;2024-03-23T10:53:28;5.82;;;2.20;;
73487;SDS011;61721;42.206;25.320;2024-03-23T10:55:54;5.35;;;2.35;;
73487;SDS011;61721;42.206;25.320;2024-03-23T10:58:23;4.85;;;2.00;;
73487;SDS011;61721;42.206;25.320;2024-03-23T11:00:54;5.88;;;2.05;;
73487;SDS011;61721;42.206;25.320;2024-03-23T11:03:32;4.10;;;2.13;;
73487;SDS011;61721;42.206;25.320;2024-03-23T11:05:59;4.47;;;2.00;;
73487;SDS011;61721;42.206;25.320;2024-03-23T11:08:31;5.75;;;2.80;;
73487;SDS011;61721;42.206;25.320;2024-03-23T11:11:14;5.05;;;2.40;;
73487;SDS011;61721;42.206;25.320;2024-03-23T11:13:44;4.28;;;1.60;;
73487;SDS011;61721;42.206;25.320;2024-03-23T11:16:15;4.80;;;2.38;;
73487;SDS011;61721;42.206;25.320;2024-03-23T11:18:43;3.97;;;2.15;;
73487;SDS011;61721;42.206;25.320;2024-03-23T11:21:10;3.58;;;2.00;;
73487;SDS011;61721;42.206;25.320;2024-03-23T11:24:12;3.72;;;1.88;;
73487;SDS011;61721;42.206;25.320;2024-03-23T11:26:39;4.10;;;1.70;;
73487;SDS011;61721;42.206;25.320;2024-03-23T11:29:10;3.45;;;1.73;;
73487;SDS011;61721;42.206;25.320;2024-03-23T11:34:05;3.95;;;1.52;;
73487;SDS011;61721;42.206;25.320;2024-03-23T11:36:32;5.03;;;1.70;;
73487;SDS011;61721;42.206;25.320;2024-03-23T11:39:11;3.35;;;1.80;;
73487;SDS011;61721;42.206;25.320;2024-03-23T11:41:45;3.30;;;1.40;;
73487;SDS011;61721;42.206;25.320;2024-03-23T11:44:16;4.55;;;1.52;;
73487;SDS011;61721;42.206;25.320;2024-03-23T11:46:44;4.07;;;1.50;;
73487;SDS011;61721;42.206;25.320;2024-03-23T11:49:22;3.60;;;1.90;;
73487;SDS011;61721;42.206;25.320;2024-03-23T11:51:49;3.72;;;1.48;;
73487;SDS011;61721;42.206;25.320;2024-03-23T11:54:19;3.60;;;1.92;;
73487;SDS011;61721;42.206;25.320;2024-03-23T11:56:56;4.25;;;1.80;;
73487;SDS011;61721;42.206;25.320;2024-03-23T11:59:30;3.95;;;1.73;;
73487;SDS011;61721;42.206;25.320;2024-03-23T12:01:59;3.75;;;1.50;;
73487;SDS011;61721;42.206;25.320;2024-03-23T12:04:27;4.63;;;1.90;;
73487;SDS011;61721;42.206;25.320;2024-03-23T12:07:10;3.65;;;1.48;;
73487;SDS011;61721;42.206;25.320;2024-03-23T12:09:39;3.85;;;2.10;;
73487;SDS011;61721;42.206;25.320;2024-03-23T12:12:06;3.45;;;1.52;;
73487;SDS011;61721;42.206;25.320;2024-03-23T12:14:35;5.60;;;1.80;;
73487;SDS011;61721;42.206;25.320;2024-03-23T12:17:10;9.85;;;1.77;;
73487;SDS011;61721;42.206;25.320;2024-03-23T12:19:38;3.67;;;1.63;;
73487;SDS011;61721;42.206;25.320;2024-03-23T12:22:05;3.53;;;1.33;;
73487;SDS011;61721;42.206;25.320;2024-03-23T12:24:33;3.50;;;1.70;;
73487;SDS011;61721;42.206;25.320;2024-03-23T12:27:01;4.60;;;2.40;;
73487;SDS011;61721;42.206;25.320;2024-03-23T12:29:30;3.70;;;1.70;;
73487;SDS011;61721;42.206;25.320;2024-03-23T12:31:58;4.13;;;1.60;;
73487;SDS011;61721;42.206;25.320;2024-03-23T12:36:55;4.55;;;1.90;;
73487;SDS011;61721;42.206;25.320;2024-03-23T12:39:23;3.83;;;1.63;;
73487;SDS011;61721;42.206;25.320;2024-03-23T12:41:49;3.83;;;1.58;;
73487;SDS011;61721;42.206;25.320;2024-03-23T12:44:18;3.25;;;1.50;;
73487;SDS011;61721;42.206;25.320;2024-03-23T12:46:44;3.67;;;1.63;;
73487;SDS011;61721;42.206;25.320;2024-03-23T12:49:12;5.68;;;1.90;;
73487;SDS011;61721;42.206;25.320;2024-03-23T12:51:40;3.85;;;1.75;;
73487;SDS011;61721;42.206;25.320;2024-03-23T12:56:41;2.92;;;1.23;;
73487;SDS011;61721;42.206;25.320;2024-03-23T12:59:08;3.75;;;1.50;;
73487;SDS011;61721;42.206;25.320;2024-03-23T13:01:35;2.88;;;1.33;;
73487;SDS011;61721;42.206;25.320;2024-03-23T13:04:02;4.85;;;1.52;;
73487;SDS011;61721;42.206;25.320;2024-03-23T13:06:29;3.50;;;1.30;;
73487;SDS011;61721;42.206;25.320;2024-03-23T13:09:01;2.78;;;1.27;;
73487;SDS011;61721;42.206;25.320;2024-03-23T13:11:28;3.72;;;1.52;;
73487;SDS011;61721;42.206;25.320;2024-03-23T13:13:56;10.85;;;1.95;;
73487;SDS011;61721;42.206;25.320;2024-03-23T13:16:22;4.10;;;1.70;;
73487;SDS011;61721;42.206;25.320;2024-03-23T13:18:49;4.93;;;1.65;;
73487;SDS011;61721;42.206;25.320;2024-03-23T13:21:16;3.55;;;1.50;;
73487;SDS011;61721;42.206;25.320;2024-03-23T13:23:46;3.20;;;1.40;;
73487;SDS011;61721;42.206;25.320;2024-03-23T13:26:15;3.60;;;1.80;;
73487;SDS011;61721;42.206;25.320;2024-03-23T13:28:42;4.70;;;1.55;;
73487;SDS011;61721;42.206;25.320;2024-03-23T13:31:09;3.33;;;1.75;;
73487;SDS011;61721;42.206;25.320;2024-03-23T13:33:37;4.00;;;1.98;;
73487;SDS011;61721;42.206;25.320;2024-03-23T13:36:03;4.07;;;1.67;;
73487;SDS011;61721;42.206;25.320;2024-03-23T13:38:31;3.83;;;1.70;;
73487;SDS011;61721;42.206;25.320;2024-03-23T13:40:58;3.72;;;1.60;;
73487;SDS011;61721;42.206;25.320;2024-03-23T13:43:27;3.33;;;1.38;;
73487;SDS011;61721;42.206;25.320;2024-03-23T13:45:54;3.90;;;1.48;;
73487;SDS011;61721;42.206;25.320;2024-03-23T13:48:23;6.40;;;2.20;;
73487;SDS011;61721;42.206;25.320;2024-03-23T13:50:56;4.05;;;1.73;;
73487;SDS011;61721;42.206;25.320;2024-03-23T13:53:24;3.10;;;1.38;;
73487;SDS011;61721;42.206;25.320;2024-03-23T13:55:50;3.45;;;1.60;;
73487;SDS011;61721;42.206;25.320;2024-03-23T13:58:18;4.00;;;1.60;;
73487;SDS011;61721;42.206;25.320;2024-03-23T14:00:46;4.07;;;1.92;;
73487;SDS011;61721;42.206;25.320;2024-03-23T14:03:13;5.82;;;2.08;;
73487;SDS011;61721;42.206;25.320;2024-03-23T14:05:40;5.45;;;2.03;;
73487;SDS011;61721;42.206;25.320;2024-03-23T14:08:10;4.28;;;1.67;;
73487;SDS011;61721;42.206;25.320;2024-03-23T14:10:40;6.32;;;1.90;;
73487;SDS011;61721;42.206;25.320;2024-03-23T14:13:07;2.95;;;1.25;;
73487;SDS011;61721;42.206;25.320;2024-03-23T14:15:34;5.13;;;1.60;;
73487;SDS011;61721;42.206;25.320;2024-03-23T14:18:03;3.38;;;1.40;;
73487;SDS011;61721;42.206;25.320;2024-03-23T14:20:30;3.42;;;1.60;;
73487;SDS011;61721;42.206;25.320;2024-03-23T14:23:05;3.47;;;1.52;;
73487;SDS011;61721;42.206;25.320;2024-03-23T14:25:32;3.40;;;1.40;;
73487;SDS011;61721;42.206;25.320;2024-03-23T14:27:59;2.83;;;1.25;;
73487;SDS011;61721;42.206;25.320;2024-03-23T14:30:26;3.47;;;1.30;;
73487;SDS011;61721;42.206;25.320;2024-03-23T14:32:53;5.20;;;2.05;;
73487;SDS011;61721;42.206;25.320;2024-03-23T14:35:21;3.63;;;1.42;;
73487;SDS011;61721;42.206;25.320;2024-03-23T14:37:49;2.95;;;1.40;;
73487;SDS011;61721;42.206;25.320;2024-03-23T14:40:23;3.25;;;1.30;;
73487;SDS011;61721;42.206;25.320;2024-03-23T14:42:51;3.85;;;1.48;;
73487;SDS011;61721;42.206;25.320;2024-03-23T14:45:18;3.28;;;1.40;;
73487;SDS011;61721;42.206;25.320;2024-03-23T14:47:45;3.58;;;1.50;;
73487;SDS011;61721;42.206;25.320;2024-03-23T14:50:12;5.72;;;2.20;;
73487;SDS011;61721;42.206;25.320;2024-03-23T14:52:42;4.10;;;1.73;;
73487;SDS011;61721;42.206;25.320;2024-03-23T14:55:10;3.78;;;1.60;;
73487;SDS011;61721;42.206;25.320;2024-03-23T14:57:38;3.95;;;1.50;;
73487;SDS011;61721;42.206;25.320;2024-03-23T15:00:06;7.65;;;3.05;;
73487;SDS011;61721;42.206;25.320;2024-03-23T15:02:36;4.18;;;2.08;;
73487;SDS011;61721;42.206;25.320;2024-03-23T15:05:02;6.53;;;2.75;;
73487;SDS011;61721;42.206;25.320;2024-03-23T15:07:30;5.05;;;2.00;;
73487;SDS011;61721;42.206;25.320;2024-03-23T15:09:58;6.95;;;2.70;;
73487;SDS011;61721;42.206;25.320;2024-03-23T15:12:25;5.13;;;2.38;;
73487;SDS011;61721;42.206;25.320;2024-03-23T15:14:51;3.33;;;1.30;;
73487;SDS011;61721;42.206;25.320;2024-03-23T15:17:19;4.90;;;1.52;;
73487;SDS011;61721;42.206;25.320;2024-03-23T15:19:45;5.20;;;1.52;;
73487;SDS011;61721;42.206;25.320;2024-03-23T15:22:13;4.90;;;1.55;;
73487;SDS011;61721;42.206;25.320;2024-03-23T15:24:39;5.82;;;2.13;;
73487;SDS011;61721;42.206;25.320;2024-03-23T15:27:08;4.53;;;1.42;;
73487;SDS011;61721;42.206;25.320;2024-03-23T15:29:34;3.95;;;1.83;;
73487;SDS011;61721;42.206;25.320;2024-03-23T15:32:02;5.25;;;1.85;;
73487;SDS011;61721;42.206;25.320;2024-03-23T15:34:28;3.78;;;1.83;;
73487;SDS011;61721;42.206;25.320;2024-03-23T15:36:56;6.18;;;3.10;;
73487;SDS011;61721;42.206;25.320;2024-03-23T15:39:22;4.97;;;2.20;;
73487;SDS011;61721;42.206;25.320;2024-03-23T15:41:57;3.88;;;1.80;;
73487;SDS011;61721;42.206;25.320;2024-03-23T15:44:26;4.10;;;1.70;;